sensor_id;sensor_type;location;lat;lon;timestamp;pressure;altitude;pressure_sealevel;temperature;humidity
63351;BME280;64988;51.058;17.040;2023-04-19T00:03:34;100660.06;;;15.43;55.53
63351;BME280;64988;51.058;17.040;2023-04-19T00:09:02;100665.53;;;15.43;55.62
63351;BME280;64988;51.058;17.040;2023-04-19T00:14:29;100663.66;;;15.24;55.09
63351;BME280;64988;51.058;17.040;2023-04-19T00:19:57;100658.34;;;15.32;56.10
63351;BME280;64988;51.058;17.040;2023-04-19T00:25:24;100651.59;;;14.98;56.38
63351;BME280;64988;51.058;17.040;2023-04-19T00:30:51;100639.13;;;14.86;55.80
63351;BME280;64988;51.058;17.040;2023-04-19T00:36:19;100649.53;;;14.81;56.60
63351;BME280;64988;51.058;17.040;2023-04-19T00:41:47;100640.72;;;15.07;55.38
63351;BME280;64988;51.058;17.040;2023-04-19T00:47:16;100633.22;;;14.71;56.54
63351;BME280;64988;51.058;17.040;2023-04-19T00:52:43;100628.03;;;14.28;56.89
63351;BME280;64988;51.058;17.040;2023-04-19T00:58:11;100622.75;;;14.57;55.88
63351;BME280;64988;51.058;17.040;2023-04-19T01:03:41;100607.91;;;14.70;55.94
63351;BME280;64988;51.058;17.040;2023-04-19T01:09:09;100601.84;;;14.57;54.91
63351;BME280;64988;51.058;17.040;2023-04-19T01:14:39;100608.13;;;13.88;55.12
63351;BME280;64988;51.058;17.040;2023-04-19T01:20:08;100601.59;;;14.00;54.71
63351;BME280;64988;51.058;17.040;2023-04-19T01:25:35;100596.72;;;14.24;54.22
63351;BME280;64988;51.058;17.040;2023-04-19T01:31:02;100593.38;;;13.81;54.34
63351;BME280;64988;51.058;17.040;2023-04-19T01:36:30;100592.75;;;13.98;53.69
63351;BME280;64988;51.058;17.040;2023-04-19T01:41:57;100585.66;;;13.76;53.35
63351;BME280;64988;51.058;17.040;2023-04-19T01:47:24;100577.25;;;13.58;53.41
63351;BME280;64988;51.058;17.040;2023-04-19T01:52:51;100570.91;;;13.28;52.77
63351;BME280;64988;51.058;17.040;2023-04-19T01:58:19;100567.66;;;14.05;51.60
63351;BME280;64988;51.058;17.040;2023-04-19T02:03:47;100565.53;;;13.58;49.87
63351;BME280;64988;51.058;17.040;2023-04-19T02:09:15;100567.47;;;13.46;46.72
63351;BME280;64988;51.058;17.040;2023-04-19T02:14:45;100558.28;;;13.17;45.59
63351;BME280;64988;51.058;17.040;2023-04-19T02:20:12;100564.22;;;13.73;45.20
63351;BME280;64988;51.058;17.040;2023-04-19T02:25:40;100554.88;;;13.66;46.37
63351;BME280;64988;51.058;17.040;2023-04-19T02:31:07;100561.69;;;13.60;47.10
63351;BME280;64988;51.058;17.040;2023-04-19T02:36:35;100565.53;;;13.05;47.33
63351;BME280;64988;51.058;17.040;2023-04-19T02:42:04;100552.97;;;13.15;45.55
63351;BME280;64988;51.058;17.040;2023-04-19T02:47:31;100544.28;;;12.69;44.50
63351;BME280;64988;51.058;17.040;2023-04-19T02:52:59;100543.78;;;12.64;44.46
63351;BME280;64988;51.058;17.040;2023-04-19T02:58:29;100539.63;;;12.92;43.58
63351;BME280;64988;51.058;17.040;2023-04-19T03:04:01;100524.63;;;13.20;44.23
63351;BME280;64988;51.058;17.040;2023-04-19T03:09:29;100526.53;;;13.29;44.15
63351;BME280;64988;51.058;17.040;2023-04-19T03:14:57;100516.88;;;12.83;45.56
63351;BME280;64988;51.058;17.040;2023-04-19T03:20:25;100513.13;;;12.63;44.65
63351;BME280;64988;51.058;17.040;2023-04-19T03:25:55;100508.91;;;12.82;44.18
63351;BME280;64988;51.058;17.040;2023-04-19T03:31:52;100507.94;;;12.72;42.98
63351;BME280;64988;51.058;17.040;2023-04-19T03:37:19;100504.19;;;12.63;43.02
63351;BME280;64988;51.058;17.040;2023-04-19T03:42:47;100504.47;;;12.81;42.10
63351;BME280;64988;51.058;17.040;2023-04-19T03:48:27;100500.47;;;12.64;43.27
63351;BME280;64988;51.058;17.040;2023-04-19T03:53:55;100498.31;;;12.79;43.67
63351;BME280;64988;51.058;17.040;2023-04-19T03:59:23;100500.09;;;12.69;45.17
63351;BME280;64988;51.058;17.040;2023-04-19T04:04:54;100506.63;;;12.12;45.58
63351;BME280;64988;51.058;17.040;2023-04-19T04:10:22;100509.47;;;11.99;45.21
63351;BME280;64988;51.058;17.040;2023-04-19T04:15:50;100502.59;;;12.06;44.77
63351;BME280;64988;51.058;17.040;2023-04-19T04:21:17;100511.44;;;12.08;44.28
63351;BME280;64988;51.058;17.040;2023-04-19T04:26:47;100523.69;;;14.80;100.00
63351;BME280;64988;51.058;17.040;2023-04-19T04:32:27;60571.50;;;-143.37;100.00
63351;BME280;64988;51.058;17.040;2023-04-19T04:37:59;60571.50;;;-143.37;100.00
63351;BME280;64988;51.058;17.040;2023-04-19T04:43:37;60571.50;;;-143.37;100.00
63351;BME280;64988;51.058;17.040;2023-04-19T04:49:06;60571.50;;;-143.37;100.00
63351;BME280;64988;51.058;17.040;2023-04-19T04:54:34;60571.50;;;-143.37;100.00
63351;BME280;64988;51.058;17.040;2023-04-19T05:00:03;100505.53;;;11.92;nan
63351;BME280;64988;51.058;17.040;2023-04-19T05:05:41;100520.22;;;9.54;nan
63351;BME280;64988;51.058;17.040;2023-04-19T05:11:11;100510.75;;;9.11;nan
63351;BME280;64988;51.058;17.040;2023-04-19T05:16:39;100511.28;;;9.03;nan
63351;BME280;64988;51.058;17.040;2023-04-19T05:22:06;100504.94;;;9.29;nan
63351;BME280;64988;51.058;17.040;2023-04-19T05:27:35;100497.59;;;9.57;nan
63351;BME280;64988;51.058;17.040;2023-04-19T05:33:04;100500.09;;;9.22;nan
63351;BME280;64988;51.058;17.040;2023-04-19T05:38:32;100491.97;;;8.84;nan
63351;BME280;64988;51.058;17.040;2023-04-19T05:44:00;100482.31;;;9.07;nan
63351;BME280;64988;51.058;17.040;2023-04-19T05:49:28;100482.44;;;9.30;nan
63351;BME280;64988;51.058;17.040;2023-04-19T05:55:23;100475.31;;;9.42;nan
63351;BME280;64988;51.058;17.040;2023-04-19T06:00:51;100476.41;;;9.76;nan
63351;BME280;64988;51.058;17.040;2023-04-19T06:06:21;100477.84;;;10.05;nan
63351;BME280;64988;51.058;17.040;2023-04-19T06:11:50;100488.44;;;9.95;nan
63351;BME280;64988;51.058;17.040;2023-04-19T06:17:21;100484.16;;;9.93;nan
63351;BME280;64988;51.058;17.040;2023-04-19T06:22:51;100502.31;;;10.27;nan
63351;BME280;64988;51.058;17.040;2023-04-19T06:28:17;100507.94;;;10.83;nan
63351;BME280;64988;51.058;17.040;2023-04-19T06:33:44;100506.75;;;11.44;nan
63351;BME280;64988;51.058;17.040;2023-04-19T06:39:15;100491.78;;;12.49;nan
63351;BME280;64988;51.058;17.040;2023-04-19T06:44:42;100492.41;;;12.74;nan
63351;BME280;64988;51.058;17.040;2023-04-19T06:50:10;100491.22;;;13.70;nan
63351;BME280;64988;51.058;17.040;2023-04-19T06:55:38;100490.50;;;13.68;nan
63351;BME280;64988;51.058;17.040;2023-04-19T07:01:06;100491.44;;;13.57;nan
63351;BME280;64988;51.058;17.040;2023-04-19T07:06:35;100509.72;;;13.86;nan
63351;BME280;64988;51.058;17.040;2023-04-19T07:12:02;100497.50;;;14.60;nan
63351;BME280;64988;51.058;17.040;2023-04-19T07:17:29;100484.72;;;15.84;nan
63351;BME280;64988;51.058;17.040;2023-04-19T07:22:59;100481.94;;;18.46;nan
63351;BME280;64988;51.058;17.040;2023-04-19T07:28:30;100474.06;;;21.86;nan
63351;BME280;64988;51.058;17.040;2023-04-19T07:33:58;100466.09;;;21.76;nan
63351;BME280;64988;51.058;17.040;2023-04-19T07:39:25;100468.56;;;22.80;nan
63351;BME280;64988;51.058;17.040;2023-04-19T07:44:53;100477.53;;;20.37;nan
63351;BME280;64988;51.058;17.040;2023-04-19T07:50:20;100456.03;;;20.71;nan
63351;BME280;64988;51.058;17.040;2023-04-19T07:55:49;100463.34;;;21.76;nan
63351;BME280;64988;51.058;17.040;2023-04-19T08:01:17;100456.28;;;23.74;nan
63351;BME280;64988;51.058;17.040;2023-04-19T08:06:44;100465.66;;;22.52;nan
63351;BME280;64988;51.058;17.040;2023-04-19T08:12:12;100473.69;;;21.00;nan
63351;BME280;64988;51.058;17.040;2023-04-19T08:17:52;100469.91;;;18.80;nan
63351;BME280;64988;51.058;17.040;2023-04-19T08:23:19;100468.06;;;19.05;nan
63351;BME280;64988;51.058;17.040;2023-04-19T08:28:55;100458.06;;;19.77;nan
63351;BME280;64988;51.058;17.040;2023-04-19T08:34:23;100450.91;;;20.07;nan
63351;BME280;64988;51.058;17.040;2023-04-19T08:39:50;100456.38;;;18.55;nan
63351;BME280;64988;51.058;17.040;2023-04-19T08:45:18;100455.50;;;15.86;nan
63351;BME280;64988;51.058;17.040;2023-04-19T08:50:50;100449.91;;;14.46;nan
63351;BME280;64988;51.058;17.040;2023-04-19T08:56:29;100458.09;;;13.15;nan
63351;BME280;64988;51.058;17.040;2023-04-19T09:02:01;100451.94;;;12.93;nan
63351;BME280;64988;51.058;17.040;2023-04-19T09:07:29;100450.16;;;13.03;nan
63351;BME280;64988;51.058;17.040;2023-04-19T09:13:02;100454.16;;;12.67;nan
63351;BME280;64988;51.058;17.040;2023-04-19T09:18:30;100453.31;;;13.49;nan
63351;BME280;64988;51.058;17.040;2023-04-19T09:24:01;100444.91;;;13.92;nan
63351;BME280;64988;51.058;17.040;2023-04-19T09:29:29;100442.09;;;13.33;nan
63351;BME280;64988;51.058;17.040;2023-04-19T09:34:58;100445.41;;;13.37;nan
63351;BME280;64988;51.058;17.040;2023-04-19T09:40:25;100449.34;;;13.53;nan
63351;BME280;64988;51.058;17.040;2023-04-19T09:45:54;100446.50;;;13.95;nan
63351;BME280;64988;51.058;17.040;2023-04-19T09:51:22;100445.31;;;13.88;nan
63351;BME280;64988;51.058;17.040;2023-04-19T09:56:50;100442.25;;;13.72;nan
63351;BME280;64988;51.058;17.040;2023-04-19T10:02:21;100440.00;;;13.86;nan
63351;BME280;64988;51.058;17.040;2023-04-19T10:07:51;100446.88;;;14.40;nan
63351;BME280;64988;51.058;17.040;2023-04-19T10:13:24;100460.03;;;13.25;nan
63351;BME280;64988;51.058;17.040;2023-04-19T10:18:52;100452.09;;;12.91;nan
63351;BME280;64988;51.058;17.040;2023-04-19T10:24:21;100440.50;;;12.89;nan
63351;BME280;64988;51.058;17.040;2023-04-19T10:30:02;100435.81;;;14.22;nan
63351;BME280;64988;51.058;17.040;2023-04-19T10:35:35;100433.16;;;14.89;nan
63351;BME280;64988;51.058;17.040;2023-04-19T10:41:04;100437.41;;;15.57;nan
63351;BME280;64988;51.058;17.040;2023-04-19T10:46:40;100434.31;;;15.52;nan
63351;BME280;64988;51.058;17.040;2023-04-19T10:52:25;100423.41;;;15.52;nan
63351;BME280;64988;51.058;17.040;2023-04-19T10:58:03;100419.50;;;15.64;nan
63351;BME280;64988;51.058;17.040;2023-04-19T11:09:10;100421.94;;;14.25;nan
63351;BME280;64988;51.058;17.040;2023-04-19T11:14:41;100426.22;;;13.99;nan
63351;BME280;64988;51.058;17.040;2023-04-19T11:20:09;100419.28;;;13.66;nan
63351;BME280;64988;51.058;17.040;2023-04-19T11:25:38;100405.22;;;13.51;nan
63351;BME280;64988;51.058;17.040;2023-04-19T11:31:05;100414.84;;;13.35;nan
63351;BME280;64988;51.058;17.040;2023-04-19T11:36:33;100417.03;;;12.99;nan
63351;BME280;64988;51.058;17.040;2023-04-19T11:42:02;100410.44;;;12.72;nan
63351;BME280;64988;51.058;17.040;2023-04-19T11:47:31;100415.84;;;12.51;nan
63351;BME280;64988;51.058;17.040;2023-04-19T11:53:01;100426.53;;;11.89;nan
63351;BME280;64988;51.058;17.040;2023-04-19T11:58:41;100424.69;;;11.56;nan
63351;BME280;64988;51.058;17.040;2023-04-19T12:04:12;100437.69;;;11.29;nan
63351;BME280;64988;51.058;17.040;2023-04-19T12:09:40;100425.41;;;11.25;nan
63351;BME280;64988;51.058;17.040;2023-04-19T12:15:08;100430.69;;;11.04;nan
63351;BME280;64988;51.058;17.040;2023-04-19T12:20:36;100425.31;;;11.26;nan
63351;BME280;64988;51.058;17.040;2023-04-19T12:26:05;100420.88;;;11.58;nan
63351;BME280;64988;51.058;17.040;2023-04-19T12:31:33;100425.31;;;11.26;nan
63351;BME280;64988;51.058;17.040;2023-04-19T12:37:01;100426.38;;;11.01;nan
63351;BME280;64988;51.058;17.040;2023-04-19T12:42:32;100431.97;;;10.76;nan
63351;BME280;64988;51.058;17.040;2023-04-19T12:47:59;100432.59;;;10.80;nan
63351;BME280;64988;51.058;17.040;2023-04-19T12:53:27;100426.31;;;10.79;nan
63351;BME280;64988;51.058;17.040;2023-04-19T12:58:54;100421.84;;;10.56;nan
63351;BME280;64988;51.058;17.040;2023-04-19T13:04:22;100417.44;;;10.55;nan
63351;BME280;64988;51.058;17.040;2023-04-19T13:09:50;100427.25;;;10.56;nan
63351;BME280;64988;51.058;17.040;2023-04-19T13:15:17;100423.63;;;9.97;nan
63351;BME280;64988;51.058;17.040;2023-04-19T13:20:45;100433.41;;;10.11;nan
63351;BME280;64988;51.058;17.040;2023-04-19T13:26:14;100424.09;;;10.27;nan
63351;BME280;64988;51.058;17.040;2023-04-19T13:31:42;100424.84;;;10.40;nan
63351;BME280;64988;51.058;17.040;2023-04-19T13:37:10;100435.63;;;10.64;nan
63351;BME280;64988;51.058;17.040;2023-04-19T13:42:38;100439.50;;;10.49;nan
63351;BME280;64988;51.058;17.040;2023-04-19T13:48:05;100433.81;;;10.76;nan
63351;BME280;64988;51.058;17.040;2023-04-19T13:53:33;100436.19;;;11.02;nan
63351;BME280;64988;51.058;17.040;2023-04-19T13:59:00;100430.44;;;11.18;nan
63351;BME280;64988;51.058;17.040;2023-04-19T14:04:27;100430.06;;;11.12;nan
63351;BME280;64988;51.058;17.040;2023-04-19T14:09:56;100431.59;;;11.71;nan
63351;BME280;64988;51.058;17.040;2023-04-19T14:15:25;100419.91;;;11.59;nan
63351;BME280;64988;51.058;17.040;2023-04-19T14:20:53;100416.06;;;11.73;nan
63351;BME280;64988;51.058;17.040;2023-04-19T14:26:21;100417.56;;;11.77;nan
63351;BME280;64988;51.058;17.040;2023-04-19T14:31:48;100413.34;;;11.95;nan
63351;BME280;64988;51.058;17.040;2023-04-19T14:37:17;100411.84;;;12.34;nan
63351;BME280;64988;51.058;17.040;2023-04-19T14:42:44;100425.69;;;12.52;nan
63351;BME280;64988;51.058;17.040;2023-04-19T14:48:11;100416.47;;;12.75;nan
63351;BME280;64988;51.058;17.040;2023-04-19T14:53:38;100416.91;;;13.01;nan
63351;BME280;64988;51.058;17.040;2023-04-19T14:59:05;100420.56;;;13.41;nan
63351;BME280;64988;51.058;17.040;2023-04-19T15:04:34;100412.31;;;13.73;nan
63351;BME280;64988;51.058;17.040;2023-04-19T15:10:05;100415.84;;;13.74;nan
63351;BME280;64988;51.058;17.040;2023-04-19T15:15:34;100414.72;;;13.36;nan
63351;BME280;64988;51.058;17.040;2023-04-19T15:21:04;100411.81;;;13.28;nan
63351;BME280;64988;51.058;17.040;2023-04-19T15:26:31;100417.38;;;13.57;nan
63351;BME280;64988;51.058;17.040;2023-04-19T15:32:02;100413.66;;;13.07;nan
63351;BME280;64988;51.058;17.040;2023-04-19T15:37:37;100412.28;;;12.71;nan
63351;BME280;64988;51.058;17.040;2023-04-19T15:43:07;100418.09;;;12.46;nan
63351;BME280;64988;51.058;17.040;2023-04-19T15:48:36;100418.63;;;12.60;nan
63351;BME280;64988;51.058;17.040;2023-04-19T15:54:04;100426.31;;;12.97;nan
63351;BME280;64988;51.058;17.040;2023-04-19T15:59:32;100419.63;;;13.01;nan
63351;BME280;64988;51.058;17.040;2023-04-19T16:05:07;100424.09;;;13.32;nan
63351;BME280;64988;51.058;17.040;2023-04-19T16:10:36;100419.50;;;14.03;nan
63351;BME280;64988;51.058;17.040;2023-04-19T16:16:05;100424.66;;;14.15;nan
63351;BME280;64988;51.058;17.040;2023-04-19T16:21:33;100423.97;;;13.74;nan
63351;BME280;64988;51.058;17.040;2023-04-19T16:27:01;100428.63;;;13.22;nan
63351;BME280;64988;51.058;17.040;2023-04-19T16:32:29;100427.88;;;12.99;nan
63351;BME280;64988;51.058;17.040;2023-04-19T16:37:57;100429.25;;;12.52;nan
63351;BME280;64988;51.058;17.040;2023-04-19T16:43:26;100431.03;;;12.42;nan
63351;BME280;64988;51.058;17.040;2023-04-19T16:48:54;100432.19;;;12.29;nan
63351;BME280;64988;51.058;17.040;2023-04-19T16:54:23;100440.88;;;12.00;nan
63351;BME280;64988;51.058;17.040;2023-04-19T16:59:50;100460.81;;;11.66;nan
63351;BME280;64988;51.058;17.040;2023-04-19T17:05:18;100455.50;;;11.53;nan
63351;BME280;64988;51.058;17.040;2023-04-19T17:10:47;100444.56;;;11.44;nan
63351;BME280;64988;51.058;17.040;2023-04-19T17:16:14;100455.41;;;11.33;nan
63351;BME280;64988;51.058;17.040;2023-04-19T17:21:42;100454.78;;;11.29;nan
63351;BME280;64988;51.058;17.040;2023-04-19T17:27:10;100454.28;;;11.24;nan
63351;BME280;64988;51.058;17.040;2023-04-19T17:32:38;100459.28;;;11.06;nan
63351;BME280;64988;51.058;17.040;2023-04-19T17:38:06;100456.25;;;11.11;nan
63351;BME280;64988;51.058;17.040;2023-04-19T17:43:33;100463.91;;;10.93;nan
63351;BME280;64988;51.058;17.040;2023-04-19T17:49:01;100465.75;;;10.93;nan
63351;BME280;64988;51.058;17.040;2023-04-19T17:54:30;100468.22;;;10.85;nan
63351;BME280;64988;51.058;17.040;2023-04-19T17:59:58;100472.59;;;10.86;nan
63351;BME280;64988;51.058;17.040;2023-04-19T18:05:26;100484.97;;;10.77;nan
63351;BME280;64988;51.058;17.040;2023-04-19T18:10:54;100490.28;;;10.79;nan
63351;BME280;64988;51.058;17.040;2023-04-19T18:16:22;100494.28;;;10.73;nan
63351;BME280;64988;51.058;17.040;2023-04-19T18:21:50;100499.69;;;10.73;nan
63351;BME280;64988;51.058;17.040;2023-04-19T18:27:18;100506.81;;;10.74;nan
63351;BME280;64988;51.058;17.040;2023-04-19T18:32:46;100501.75;;;10.70;nan
63351;BME280;64988;51.058;17.040;2023-04-19T18:38:14;100511.25;;;10.51;nan
63351;BME280;64988;51.058;17.040;2023-04-19T18:43:41;100511.91;;;10.55;nan
63351;BME280;64988;51.058;17.040;2023-04-19T18:49:25;100513.25;;;10.61;nan
63351;BME280;64988;51.058;17.040;2023-04-19T18:54:54;100511.25;;;10.51;nan
63351;BME280;64988;51.058;17.040;2023-04-19T19:00:24;100509.13;;;10.44;nan
63351;BME280;64988;51.058;17.040;2023-04-19T19:05:53;100508.31;;;10.31;nan
63351;BME280;64988;51.058;17.040;2023-04-19T19:11:21;100505.00;;;10.27;nan
63351;BME280;64988;51.058;17.040;2023-04-19T19:16:54;100508.44;;;10.29;nan
63351;BME280;64988;51.058;17.040;2023-04-19T19:22:23;100510.81;;;10.34;nan
63351;BME280;64988;51.058;17.040;2023-04-19T19:27:55;100509.72;;;10.36;nan
63351;BME280;64988;51.058;17.040;2023-04-19T19:33:32;100512.19;;;10.39;nan
63351;BME280;64988;51.058;17.040;2023-04-19T19:39:06;100521.06;;;10.29;nan
63351;BME280;64988;51.058;17.040;2023-04-19T19:44:34;100523.25;;;10.24;nan
63351;BME280;64988;51.058;17.040;2023-04-19T19:50:03;100530.47;;;10.23;nan
63351;BME280;64988;51.058;17.040;2023-04-19T19:55:52;100533.72;;;10.16;nan
63351;BME280;64988;51.058;17.040;2023-04-19T20:01:22;100531.34;;;10.11;nan
63351;BME280;64988;51.058;17.040;2023-04-19T20:06:50;100533.66;;;10.05;nan
63351;BME280;64988;51.058;17.040;2023-04-19T20:12:20;100536.75;;;10.11;nan
63351;BME280;64988;51.058;17.040;2023-04-19T20:17:47;100530.81;;;10.06;nan
63351;BME280;64988;51.058;17.040;2023-04-19T20:23:18;100541.59;;;10.06;nan
63351;BME280;64988;51.058;17.040;2023-04-19T20:28:46;100544.94;;;10.10;nan
63351;BME280;64988;51.058;17.040;2023-04-19T20:34:14;100541.53;;;9.95;nan
63351;BME280;64988;51.058;17.040;2023-04-19T20:39:41;100523.09;;;9.89;nan
63351;BME280;64988;51.058;17.040;2023-04-19T20:45:09;100537.34;;;9.78;nan
63351;BME280;64988;51.058;17.040;2023-04-19T20:50:40;100540.59;;;9.71;nan
63351;BME280;64988;51.058;17.040;2023-04-19T20:56:07;100540.28;;;9.63;nan
63351;BME280;64988;51.058;17.040;2023-04-19T21:01:36;100537.16;;;9.56;nan
63351;BME280;64988;51.058;17.040;2023-04-19T21:07:04;100537.25;;;9.55;nan
63351;BME280;64988;51.058;17.040;2023-04-19T21:12:32;100543.09;;;9.48;nan
63351;BME280;64988;51.058;17.040;2023-04-19T21:18:00;100530.69;;;9.33;nan
63351;BME280;64988;51.058;17.040;2023-04-19T21:23:27;100531.31;;;9.24;nan
63351;BME280;64988;51.058;17.040;2023-04-19T21:28:55;100548.78;;;9.19;nan
63351;BME280;64988;51.058;17.040;2023-04-19T21:34:22;100545.13;;;9.20;nan
63351;BME280;64988;51.058;17.040;2023-04-19T21:39:50;100553.09;;;9.34;nan
63351;BME280;64988;51.058;17.040;2023-04-19T21:45:18;100533.41;;;9.46;nan
63351;BME280;64988;51.058;17.040;2023-04-19T21:50:46;100529.41;;;9.52;nan
63351;BME280;64988;51.058;17.040;2023-04-19T21:56:13;100523.69;;;9.56;nan
63351;BME280;64988;51.058;17.040;2023-04-19T22:01:41;100517.53;;;9.54;nan
63351;BME280;64988;51.058;17.040;2023-04-19T22:07:09;100537.78;;;9.60;nan
63351;BME280;64988;51.058;17.040;2023-04-19T22:12:38;100539.94;;;9.67;nan
63351;BME280;64988;51.058;17.040;2023-04-19T22:18:17;100537.25;;;9.67;nan
63351;BME280;64988;51.058;17.040;2023-04-19T22:23:45;100539.19;;;9.78;nan
63351;BME280;64988;51.058;17.040;2023-04-19T22:29:12;100533.03;;;9.76;nan
63351;BME280;64988;51.058;17.040;2023-04-19T22:34:39;100520.75;;;9.72;nan
63351;BME280;64988;51.058;17.040;2023-04-19T22:40:07;100521.84;;;9.69;nan
63351;BME280;64988;51.058;17.040;2023-04-19T22:45:35;100521.28;;;9.77;nan
63351;BME280;64988;51.058;17.040;2023-04-19T22:51:02;100525.81;;;9.76;nan
63351;BME280;64988;51.058;17.040;2023-04-19T22:56:30;100518.50;;;9.78;nan
63351;BME280;64988;51.058;17.040;2023-04-19T23:01:57;100518.34;;;9.80;nan
63351;BME280;64988;51.058;17.040;2023-04-19T23:07:24;100524.84;;;9.77;nan
63351;BME280;64988;51.058;17.040;2023-04-19T23:12:52;100531.84;;;9.67;nan
63351;BME280;64988;51.058;17.040;2023-04-19T23:18:23;100542.09;;;9.75;nan
63351;BME280;64988;51.058;17.040;2023-04-19T23:23:52;100527.44;;;9.79;nan
63351;BME280;64988;51.058;17.040;2023-04-19T23:29:19;100522.88;;;9.79;nan
63351;BME280;64988;51.058;17.040;2023-04-19T23:34:46;100513.84;;;9.80;nan
63351;BME280;64988;51.058;17.040;2023-04-19T23:40:13;100503.72;;;9.71;nan
63351;BME280;64988;51.058;17.040;2023-04-19T23:45:41;100508.97;;;9.73;nan
63351;BME280;64988;51.058;17.040;2023-04-19T23:51:08;100500.91;;;9.73;nan
63351;BME280;64988;51.058;17.040;2023-04-19T23:56:35;100498.97;;;9.75;nan
